createdAt,value
2022-12-06T00:00:37.823Z,3.71
2022-12-06T00:01:37.860Z,3.94
2022-12-06T00:02:38.073Z,3.89
2022-12-06T00:03:38.171Z,3.77
2022-12-06T00:04:40.829Z,3.82
2022-12-06T00:05:40.690Z,3.86
2022-12-06T00:06:37.813Z,3.78
2022-12-06T00:07:38.091Z,3.86
2022-12-06T00:08:37.853Z,3.91
2022-12-06T00:09:37.839Z,3.88
2022-12-06T00:10:37.860Z,3.85
2022-12-06T00:11:37.824Z,3.77
2022-12-06T00:12:37.812Z,3.84
2022-12-06T00:13:37.853Z,3.85
2022-12-06T00:14:37.842Z,3.76
2022-12-06T00:15:40.911Z,3.88
2022-12-06T00:16:38.311Z,3.88
2022-12-06T00:17:43.211Z,3.94
2022-12-06T00:18:40.594Z,3.82
2022-12-06T00:19:37.503Z,3.92
2022-12-06T00:20:37.855Z,3.84
2022-12-06T00:21:37.848Z,3.96
2022-12-06T00:22:37.872Z,3.92
2022-12-06T00:23:37.863Z,3.88
2022-12-06T00:24:37.864Z,3.95
2022-12-06T00:25:37.952Z,4.12
2022-12-06T00:26:40.620Z,4.13
2022-12-06T00:27:37.837Z,4.09
2022-12-06T00:28:37.845Z,4.13
2022-12-06T00:29:37.889Z,4.09
2022-12-06T00:30:37.915Z,4.13
2022-12-06T00:31:38.239Z,4.24
2022-12-06T00:32:37.856Z,4.22
2022-12-06T00:33:37.878Z,4.16
2022-12-06T00:34:37.896Z,4.25
2022-12-06T00:35:37.885Z,4.12
2022-12-06T00:36:37.879Z,4.22
2022-12-06T00:37:40.626Z,4.09
2022-12-06T00:38:37.910Z,4.14
2022-12-06T00:39:37.893Z,4.24
2022-12-06T00:40:37.923Z,4.25
2022-12-06T00:41:37.871Z,4.14
2022-12-06T00:42:37.874Z,4.25
2022-12-06T00:43:40.899Z,4.09
2022-12-06T00:44:37.892Z,4.14
2022-12-06T00:45:38.159Z,4.09
2022-12-06T00:46:37.921Z,4.21
2022-12-06T00:47:37.912Z,4.21
2022-12-06T00:48:38.125Z,4.31
2022-12-06T00:49:37.875Z,4.3
2022-12-06T00:50:37.920Z,4.36
2022-12-06T00:51:37.921Z,4.3
2022-12-06T00:52:37.902Z,4.32
2022-12-06T00:53:38.820Z,4.38
2022-12-06T00:54:37.902Z,4.39
2022-12-06T00:55:37.934Z,4.36
2022-12-06T00:56:37.940Z,4.39
2022-12-06T00:57:37.937Z,4.38
2022-12-06T00:58:37.921Z,4.36
2022-12-06T00:59:41.016Z,4.46
2022-12-06T01:00:37.930Z,4.46
2022-12-06T01:01:39.280Z,4.48
2022-12-06T01:02:37.923Z,4.48
2022-12-06T01:03:40.289Z,4.5
2022-12-06T01:04:38.929Z,4.45
2022-12-06T01:05:38.152Z,4.46
2022-12-06T01:06:37.908Z,4.45
2022-12-06T01:07:38.106Z,4.57
2022-12-06T01:08:37.932Z,4.48
2022-12-06T01:09:37.905Z,4.58
2022-12-06T01:10:40.688Z,4.58
2022-12-06T01:11:37.950Z,4.48
2022-12-06T01:12:37.963Z,4.49
2022-12-06T01:13:37.930Z,4.49
2022-12-06T01:14:37.916Z,4.53
2022-12-06T01:15:38.749Z,4.57
2022-12-06T01:16:38.261Z,4.56
2022-12-06T01:17:37.966Z,4.6
2022-12-06T01:18:37.978Z,4.57
2022-12-06T01:19:37.964Z,4.6
2022-12-06T01:20:37.949Z,4.5
2022-12-06T01:21:37.924Z,4.6
2022-12-06T01:22:37.950Z,4.61
2022-12-06T01:23:37.932Z,4.6
2022-12-06T01:24:37.930Z,4.63
2022-12-06T01:25:40.977Z,4.61
2022-12-06T01:26:37.800Z,4.66
2022-12-06T01:27:37.960Z,4.58
2022-12-06T01:28:37.957Z,4.68
2022-12-06T01:29:37.961Z,4.64
2022-12-06T01:30:38.091Z,4.61
2022-12-06T01:31:42.774Z,4.56
2022-12-06T01:32:37.974Z,4.66
2022-12-06T01:33:37.993Z,4.74
2022-12-06T01:34:37.987Z,4.71
2022-12-06T01:35:38.005Z,4.61
2022-12-06T01:36:37.954Z,4.68
2022-12-06T01:37:37.979Z,4.63
2022-12-06T01:38:37.960Z,4.71
2022-12-06T01:39:37.961Z,4.61
2022-12-06T01:40:38.060Z,4.74
2022-12-06T01:41:37.975Z,4.82
2022-12-06T01:42:41.005Z,4.63
2022-12-06T01:43:38.079Z,4.71
2022-12-06T01:44:38.021Z,4.79
2022-12-06T01:45:38.108Z,4.82
2022-12-06T01:46:38.292Z,4.76
2022-12-06T01:47:38.013Z,4.75
2022-12-06T01:48:37.954Z,4.7
2022-12-06T01:49:37.999Z,4.79
2022-12-06T01:50:38.010Z,4.83
2022-12-06T01:51:37.983Z,4.83
2022-12-06T01:52:38.001Z,4.78
2022-12-06T01:53:41.043Z,4.87
2022-12-06T01:54:37.979Z,4.87
2022-12-06T01:55:38.008Z,4.79
2022-12-06T01:56:39.048Z,4.84
2022-12-06T01:57:37.985Z,4.84
2022-12-06T01:58:41.083Z,4.83
2022-12-06T01:59:37.998Z,4.71
2022-12-06T02:00:38.052Z,4.86
2022-12-06T02:01:38.343Z,4.78
2022-12-06T02:02:38.464Z,4.82
2022-12-06T02:03:38.016Z,4.9
2022-12-06T02:04:40.745Z,4.86
2022-12-06T02:05:45.007Z,4.87
2022-12-06T02:06:38.025Z,4.86
2022-12-06T02:07:38.222Z,4.87
2022-12-06T02:08:38.071Z,4.79
2022-12-06T02:09:42.876Z,4.79
2022-12-06T02:10:38.012Z,4.84
2022-12-06T02:11:40.080Z,4.89
2022-12-06T02:12:38.062Z,4.78
2022-12-06T02:13:38.023Z,4.83
2022-12-06T02:14:38.053Z,4.94
2022-12-06T02:15:38.046Z,4.9
2022-12-06T02:16:38.414Z,4.84
2022-12-06T02:17:38.016Z,4.9
2022-12-06T02:18:38.094Z,4.92
2022-12-06T02:19:38.029Z,4.83
2022-12-06T02:20:41.093Z,4.83
2022-12-06T02:21:38.041Z,4.9
2022-12-06T02:22:38.041Z,4.78
2022-12-06T02:23:38.048Z,4.84
2022-12-06T02:24:38.052Z,4.89
2022-12-06T02:25:45.359Z,4.79
2022-12-06T02:26:38.063Z,4.78
2022-12-06T02:27:38.054Z,4.84
2022-12-06T02:28:38.037Z,4.78
2022-12-06T02:29:38.040Z,4.84
2022-12-06T02:30:38.564Z,4.74
2022-12-06T02:31:41.821Z,4.78
2022-12-06T02:32:38.043Z,4.71
2022-12-06T02:33:38.074Z,4.71
2022-12-06T02:34:38.052Z,4.74
2022-12-06T02:35:38.161Z,4.61
2022-12-06T02:36:38.131Z,4.71
2022-12-06T02:37:38.072Z,4.74
2022-12-06T02:38:38.051Z,4.79
2022-12-06T02:39:38.064Z,4.78
2022-12-06T02:40:38.064Z,4.79
2022-12-06T02:41:38.088Z,4.86
2022-12-06T02:42:41.087Z,4.78
2022-12-06T02:43:38.050Z,4.79
2022-12-06T02:44:38.072Z,4.86
2022-12-06T02:45:38.066Z,4.79
2022-12-06T02:46:38.371Z,4.83
2022-12-06T02:47:38.112Z,4.86
2022-12-06T02:48:38.099Z,4.78
2022-12-06T02:49:38.120Z,4.79
2022-12-06T02:50:38.095Z,4.92
2022-12-06T02:51:38.091Z,4.84
2022-12-06T02:52:38.127Z,4.92
2022-12-06T02:53:41.142Z,4.83
2022-12-06T02:54:38.079Z,4.79
2022-12-06T02:55:38.220Z,4.87
2022-12-06T02:56:38.103Z,4.76
2022-12-06T02:57:38.082Z,4.83
2022-12-06T02:58:38.112Z,4.79
2022-12-06T02:59:38.082Z,4.66
2022-12-06T03:00:38.088Z,4.75
2022-12-06T03:01:38.412Z,4.68
2022-12-06T03:02:38.362Z,4.58
2022-12-06T03:03:38.122Z,4.75
2022-12-06T03:04:41.226Z,4.67
2022-12-06T03:05:38.094Z,4.71
2022-12-06T03:06:39.122Z,4.66
2022-12-06T03:07:38.369Z,4.61
2022-12-06T03:08:38.120Z,4.6
2022-12-06T03:09:38.114Z,4.67
2022-12-06T03:10:38.111Z,4.63
2022-12-06T03:11:38.118Z,4.74
2022-12-06T03:12:38.102Z,4.74
2022-12-06T03:13:38.116Z,4.64
2022-12-06T03:14:38.093Z,4.75
2022-12-06T03:15:41.345Z,4.61
2022-12-06T03:16:38.128Z,4.66
2022-12-06T03:17:38.116Z,4.74
2022-12-06T03:18:41.158Z,4.6
2022-12-06T03:19:38.140Z,4.71
2022-12-06T03:20:38.134Z,4.74
2022-12-06T03:21:38.155Z,4.78
2022-12-06T03:22:44.259Z,4.83
2022-12-06T03:23:38.138Z,4.63
2022-12-06T03:24:38.159Z,4.68
2022-12-06T03:25:38.133Z,4.7
2022-12-06T03:26:41.401Z,4.82
2022-12-06T03:27:38.146Z,4.66
2022-12-06T03:28:38.149Z,4.79
2022-12-06T03:29:38.138Z,4.63
2022-12-06T03:30:38.157Z,4.7
2022-12-06T03:31:38.386Z,4.67
2022-12-06T03:32:38.170Z,4.66
2022-12-06T03:33:38.136Z,4.84
2022-12-06T03:34:38.214Z,4.82
2022-12-06T03:35:38.157Z,4.79
2022-12-06T03:36:38.151Z,4.83
2022-12-06T03:37:41.232Z,4.9
2022-12-06T03:38:38.175Z,4.9
2022-12-06T03:39:38.166Z,4.82
2022-12-06T03:40:38.228Z,4.79
2022-12-06T03:41:38.156Z,4.76
2022-12-06T03:42:38.823Z,4.89
2022-12-06T03:43:38.175Z,4.83
2022-12-06T03:44:38.165Z,4.79
2022-12-06T03:45:38.382Z,4.9
2022-12-06T03:46:38.323Z,4.95
2022-12-06T03:47:38.194Z,4.94
2022-12-06T03:48:38.173Z,4.98
2022-12-06T03:49:38.201Z,4.9
2022-12-06T03:50:38.226Z,4.98
2022-12-06T03:51:38.187Z,4.94
2022-12-06T03:52:38.200Z,4.9
2022-12-06T03:53:38.192Z,4.9
2022-12-06T03:54:38.173Z,5.08
2022-12-06T03:55:38.173Z,4.98
2022-12-06T03:56:38.219Z,5.02
2022-12-06T03:57:38.205Z,5.05
2022-12-06T03:58:38.178Z,5.05
2022-12-06T03:59:38.172Z,5.02
2022-12-06T04:00:38.186Z,5.01
2022-12-06T04:01:38.326Z,5.12
2022-12-06T04:02:38.248Z,4.98
2022-12-06T04:03:38.454Z,5
2022-12-06T04:04:39.269Z,4.97
2022-12-06T04:05:41.171Z,4.98
2022-12-06T04:06:38.236Z,4.97
2022-12-06T04:07:38.710Z,4.98
2022-12-06T04:08:38.224Z,5
2022-12-06T04:09:41.383Z,5.02
2022-12-06T04:10:38.210Z,4.98
2022-12-06T04:11:38.229Z,5.01
2022-12-06T04:12:38.248Z,5.02
2022-12-06T04:13:38.186Z,5.04
2022-12-06T04:14:38.226Z,4.97
2022-12-06T04:15:38.333Z,4.87
2022-12-06T04:16:38.337Z,4.95
2022-12-06T04:17:38.226Z,5.01
2022-12-06T04:18:38.221Z,5
2022-12-06T04:19:38.227Z,5.07
2022-12-06T04:20:41.384Z,5.01
2022-12-06T04:21:38.225Z,5
2022-12-06T04:22:38.309Z,5.02
2022-12-06T04:23:38.225Z,5.01
2022-12-06T04:24:38.209Z,5.08
2022-12-06T04:25:42.363Z,5.07
2022-12-06T04:26:38.224Z,5.01
2022-12-06T04:27:38.248Z,5.01
2022-12-06T04:28:38.261Z,5.05
2022-12-06T04:29:38.244Z,4.97
2022-12-06T04:30:38.248Z,4.98
2022-12-06T04:31:41.165Z,5.01
2022-12-06T04:32:38.265Z,5.01
2022-12-06T04:33:38.245Z,5.05
2022-12-06T04:34:38.266Z,5.07
2022-12-06T04:35:38.241Z,5
2022-12-06T04:36:41.316Z,5.1
2022-12-06T04:37:38.272Z,5.07
2022-12-06T04:38:38.291Z,5.08
2022-12-06T04:39:38.251Z,5.13
2022-12-06T04:40:38.228Z,5.08
2022-12-06T04:41:38.246Z,5.12
2022-12-06T04:42:41.305Z,4.98
2022-12-06T04:43:38.261Z,5
2022-12-06T04:44:38.272Z,5
2022-12-06T04:45:38.266Z,5.04
2022-12-06T04:46:38.569Z,5.05
2022-12-06T04:47:41.279Z,5.05
2022-12-06T04:48:38.279Z,5.07
2022-12-06T04:49:38.265Z,5.08
2022-12-06T04:50:38.291Z,5.15
2022-12-06T04:51:38.297Z,5.19
2022-12-06T04:52:40.805Z,5.23
2022-12-06T04:53:38.288Z,5.18
2022-12-06T04:54:38.333Z,5.18
2022-12-06T04:55:38.278Z,5.23
2022-12-06T04:56:38.286Z,5.18
2022-12-06T04:57:38.270Z,5.19
2022-12-06T04:58:41.405Z,5.07
2022-12-06T04:59:38.321Z,5.15
2022-12-06T05:00:41.495Z,5.12
2022-12-06T05:01:38.283Z,5.19
2022-12-06T05:02:38.281Z,5.16
2022-12-06T05:03:44.796Z,5.08
2022-12-06T05:04:38.294Z,5.16
2022-12-06T05:05:38.302Z,5.19
2022-12-06T05:06:38.291Z,5.19
2022-12-06T05:07:38.531Z,5.2
2022-12-06T05:08:38.308Z,5.22
2022-12-06T05:09:41.450Z,5.12
2022-12-06T05:10:38.289Z,5.2
2022-12-06T05:11:38.291Z,5.18
2022-12-06T05:12:38.284Z,5.08
2022-12-06T05:13:38.346Z,5.08
2022-12-06T05:14:38.308Z,5.16
2022-12-06T05:15:38.342Z,5.16
2022-12-06T05:16:38.688Z,5.18
2022-12-06T05:17:38.301Z,5.19
2022-12-06T05:18:38.312Z,5.28
2022-12-06T05:19:38.305Z,5.25
2022-12-06T05:20:41.345Z,5.2
2022-12-06T05:21:38.316Z,5.18
2022-12-06T05:22:38.314Z,5.22
2022-12-06T05:23:38.305Z,5.19
2022-12-06T05:24:38.310Z,5.2
2022-12-06T05:25:38.363Z,5.25
2022-12-06T05:26:38.309Z,5.13
2022-12-06T05:27:40.888Z,5.19
2022-12-06T05:28:38.329Z,5.19
2022-12-06T05:29:38.323Z,5.19
2022-12-06T05:30:38.330Z,5.16
2022-12-06T05:31:41.550Z,5.2
2022-12-06T05:32:38.350Z,5.19
2022-12-06T05:33:38.321Z,5.18
2022-12-06T05:34:38.341Z,5.2
2022-12-06T05:35:38.332Z,5.22
2022-12-06T05:36:38.339Z,5.16
2022-12-06T05:37:38.321Z,5.18
2022-12-06T05:38:38.326Z,5.18
2022-12-06T05:39:38.338Z,5.23
2022-12-06T05:40:39.849Z,5.22
2022-12-06T05:41:38.395Z,5.31
2022-12-06T05:42:42.259Z,5.33
2022-12-06T05:43:38.356Z,5.19
2022-12-06T05:44:38.362Z,5.16
2022-12-06T05:45:38.613Z,5.18
2022-12-06T05:46:38.343Z,5.16
2022-12-06T05:47:38.356Z,5.13
2022-12-06T05:48:38.387Z,5.2
2022-12-06T05:49:38.361Z,5.25
2022-12-06T05:50:38.466Z,5.26
2022-12-06T05:51:38.367Z,5.19
2022-12-06T05:52:38.365Z,5.16
2022-12-06T05:53:41.380Z,5.26
2022-12-06T05:54:38.365Z,5.2
2022-12-06T05:55:38.360Z,5.26
2022-12-06T05:56:38.377Z,5.25
2022-12-06T05:57:41.197Z,5.25
2022-12-06T05:58:38.369Z,5.31
2022-12-06T05:59:38.398Z,5.37
2022-12-06T06:00:38.415Z,5.33
2022-12-06T06:01:38.469Z,5.33
2022-12-06T06:02:38.739Z,5.37
2022-12-06T06:03:42.363Z,5.29
2022-12-06T06:04:41.168Z,5.33
2022-12-06T06:05:38.396Z,5.38
2022-12-06T06:06:38.386Z,5.4
2022-12-06T06:07:38.637Z,5.36
2022-12-06T06:08:38.418Z,5.4
2022-12-06T06:09:41.166Z,5.38
2022-12-06T06:10:38.375Z,5.4
2022-12-06T06:11:38.392Z,5.37
2022-12-06T06:12:38.599Z,5.33
2022-12-06T06:13:38.451Z,5.33
2022-12-06T06:14:38.657Z,5.34
2022-12-06T06:15:38.397Z,5.37
2022-12-06T06:16:38.584Z,5.31
2022-12-06T06:17:38.389Z,5.38
2022-12-06T06:18:38.435Z,5.37
2022-12-06T06:19:38.399Z,5.31
2022-12-06T06:20:38.439Z,5.41
2022-12-06T06:21:38.481Z,5.33
2022-12-06T06:22:38.403Z,5.31
2022-12-06T06:23:38.443Z,5.36
2022-12-06T06:24:38.412Z,5.34
2022-12-06T06:25:38.409Z,5.4
2022-12-06T06:26:38.415Z,5.41
2022-12-06T06:27:38.429Z,5.34
2022-12-06T06:28:38.441Z,5.4
2022-12-06T06:29:45.251Z,5.36
2022-12-06T06:30:38.427Z,5.38
2022-12-06T06:31:38.549Z,5.4
2022-12-06T06:32:38.422Z,5.46
2022-12-06T06:33:38.451Z,5.4
2022-12-06T06:34:38.463Z,5.36
2022-12-06T06:35:38.427Z,5.43
2022-12-06T06:36:45.835Z,5.44
2022-12-06T06:37:38.419Z,5.54
2022-12-06T06:38:38.472Z,5.49
2022-12-06T06:39:38.448Z,5.51
2022-12-06T06:40:38.597Z,5.46
2022-12-06T06:41:38.428Z,5.4
2022-12-06T06:42:38.441Z,5.54
2022-12-06T06:43:38.481Z,5.52
2022-12-06T06:44:38.444Z,5.55
2022-12-06T06:45:38.709Z,5.49
2022-12-06T06:46:38.652Z,5.55
2022-12-06T06:47:41.229Z,5.56
2022-12-06T06:48:38.451Z,5.58
2022-12-06T06:49:38.433Z,5.44
2022-12-06T06:50:38.465Z,5.44
2022-12-06T06:51:38.458Z,5.49
2022-12-06T06:52:41.471Z,5.55
2022-12-06T06:53:38.522Z,5.47
2022-12-06T06:54:38.497Z,5.51
2022-12-06T06:55:38.445Z,5.56
2022-12-06T06:56:38.460Z,5.49
2022-12-06T06:57:38.448Z,5.56
2022-12-06T06:58:41.626Z,5.52
2022-12-06T06:59:38.446Z,5.56
2022-12-06T07:00:38.451Z,5.55
2022-12-06T07:01:38.806Z,5.51
2022-12-06T07:02:39.822Z,5.55
2022-12-06T07:03:39.939Z,5.56
2022-12-06T07:04:38.452Z,5.58
2022-12-06T07:05:38.467Z,5.56
2022-12-06T07:06:38.652Z,5.58
2022-12-06T07:07:38.661Z,5.58
2022-12-06T07:08:38.507Z,5.54
2022-12-06T07:09:41.502Z,5.54
2022-12-06T07:10:38.505Z,5.4
2022-12-06T07:11:38.457Z,5.54
2022-12-06T07:12:41.199Z,5.41
2022-12-06T07:13:38.496Z,5.55
2022-12-06T07:14:41.586Z,5.47
2022-12-06T07:15:38.483Z,5.52
2022-12-06T07:16:38.781Z,5.56
2022-12-06T07:17:38.606Z,5.49
2022-12-06T07:18:38.542Z,5.38
2022-12-06T07:19:38.512Z,5.47
2022-12-06T07:20:38.519Z,5.47
2022-12-06T07:21:38.487Z,5.52
2022-12-06T07:22:38.323Z,5.49
2022-12-06T07:23:38.536Z,5.58
2022-12-06T07:24:52.585Z,5.62
2022-12-06T07:25:38.660Z,5.65
2022-12-06T07:26:38.367Z,5.58
2022-12-06T07:27:38.340Z,5.59
2022-12-06T07:28:38.532Z,5.62
2022-12-06T07:29:38.507Z,5.59
2022-12-06T07:30:38.914Z,5.61
2022-12-06T07:31:38.865Z,5.56
2022-12-06T07:32:38.500Z,5.59
2022-12-06T07:33:38.608Z,5.59
2022-12-06T07:34:38.506Z,5.72
2022-12-06T07:36:16.099Z,5.69
2022-12-06T07:36:41.538Z,5.74
2022-12-06T07:37:38.515Z,5.74
2022-12-06T07:38:38.620Z,5.67
2022-12-06T07:39:38.520Z,5.73
2022-12-06T07:41:08.465Z,5.64
2022-12-06T07:41:38.586Z,5.59
2022-12-06T07:42:38.511Z,5.69
2022-12-06T07:43:38.541Z,5.72
2022-12-06T07:44:38.522Z,5.73
2022-12-06T07:45:38.572Z,5.74
2022-12-06T07:46:38.656Z,5.74
2022-12-06T07:47:41.393Z,5.73
2022-12-06T07:48:38.572Z,5.79
2022-12-06T07:49:38.602Z,5.81
2022-12-06T07:50:38.557Z,5.8
2022-12-06T07:51:38.556Z,5.88
2022-12-06T07:52:38.544Z,5.9
2022-12-06T07:53:38.586Z,5.87
2022-12-06T07:54:38.555Z,5.88
2022-12-06T07:55:38.542Z,5.79
2022-12-06T07:56:38.552Z,5.74
2022-12-06T07:57:46.171Z,5.83
2022-12-06T07:58:41.673Z,5.83
2022-12-06T07:59:38.580Z,5.88
2022-12-06T08:00:38.558Z,5.94
2022-12-06T08:01:38.848Z,5.83
2022-12-06T08:02:38.606Z,5.73
2022-12-06T08:03:38.551Z,5.88
2022-12-06T08:04:38.791Z,5.84
2022-12-06T08:05:38.615Z,5.9
2022-12-06T08:06:38.581Z,5.88
2022-12-06T08:07:38.819Z,5.95
2022-12-06T08:08:38.698Z,5.83
2022-12-06T08:09:41.316Z,5.92
2022-12-06T08:10:38.551Z,5.84
2022-12-06T08:11:38.590Z,5.79
2022-12-06T08:12:38.596Z,5.84
2022-12-06T08:13:38.577Z,5.9
2022-12-06T08:14:38.626Z,5.84
2022-12-06T08:15:38.834Z,5.83
2022-12-06T08:16:38.608Z,5.87
2022-12-06T08:17:38.588Z,5.92
2022-12-06T08:18:38.594Z,5.92
2022-12-06T08:19:38.604Z,5.84
2022-12-06T08:20:41.396Z,5.91
2022-12-06T08:21:38.615Z,5.98
2022-12-06T08:22:38.573Z,5.88
2022-12-06T08:23:39.397Z,5.94
2022-12-06T08:24:38.595Z,5.9
2022-12-06T08:25:38.595Z,5.91
2022-12-06T08:26:38.601Z,5.9
2022-12-06T08:27:38.599Z,5.9
2022-12-06T08:28:38.628Z,5.94
2022-12-06T08:29:38.445Z,5.88
2022-12-06T08:30:41.831Z,5.79
2022-12-06T08:31:41.872Z,5.8
2022-12-06T08:32:38.642Z,5.91
2022-12-06T08:33:38.603Z,5.92
2022-12-06T08:34:38.605Z,5.95
2022-12-06T08:35:38.604Z,5.9
2022-12-06T08:36:41.749Z,6.01
2022-12-06T08:37:38.619Z,5.94
2022-12-06T08:38:38.638Z,5.83
2022-12-06T08:39:38.625Z,5.87
2022-12-06T08:40:38.625Z,5.97
2022-12-06T08:41:38.627Z,5.87
2022-12-06T08:42:38.637Z,5.87
2022-12-06T08:43:38.650Z,5.92
2022-12-06T08:44:38.659Z,5.88
2022-12-06T08:45:41.599Z,6.01
2022-12-06T08:46:38.762Z,5.94
2022-12-06T08:47:38.624Z,5.95
2022-12-06T08:48:45.873Z,5.91
2022-12-06T08:49:38.614Z,5.98
2022-12-06T08:50:38.616Z,6.05
2022-12-06T08:51:38.620Z,6.06
2022-12-06T08:52:38.693Z,5.95
2022-12-06T08:53:38.641Z,6.01
2022-12-06T08:54:38.669Z,5.94
2022-12-06T08:55:38.667Z,6.07
2022-12-06T08:56:38.688Z,5.88
2022-12-06T08:57:38.682Z,6.05
2022-12-06T08:58:38.647Z,6.05
2022-12-06T08:59:41.648Z,6.06
2022-12-06T09:00:38.670Z,5.99
2022-12-06T09:01:42.872Z,5.88
2022-12-06T09:02:38.637Z,5.91
2022-12-06T09:03:41.549Z,5.92
2022-12-06T09:04:38.942Z,5.92
2022-12-06T09:05:38.660Z,6.05
2022-12-06T09:06:38.630Z,5.99
2022-12-06T09:07:38.989Z,6.12
2022-12-06T09:08:38.685Z,6.02
2022-12-06T09:09:38.670Z,5.98
2022-12-06T09:10:38.683Z,6.01
2022-12-06T09:11:38.673Z,6.05
2022-12-06T09:12:38.654Z,5.95
2022-12-06T09:13:38.668Z,6.01
2022-12-06T09:14:41.834Z,5.92
2022-12-06T09:15:38.935Z,5.88
2022-12-06T09:16:38.864Z,5.95
2022-12-06T09:17:38.668Z,5.91
2022-12-06T09:18:38.705Z,5.91
2022-12-06T09:19:40.014Z,5.94
2022-12-06T09:20:38.662Z,5.9
2022-12-06T09:21:38.693Z,6.01
2022-12-06T09:22:38.671Z,5.98
2022-12-06T09:23:38.689Z,5.97
2022-12-06T09:24:38.752Z,5.99
2022-12-06T09:25:41.474Z,5.91
2022-12-06T09:26:38.695Z,5.9
2022-12-06T09:27:38.683Z,6.02
2022-12-06T09:28:38.709Z,5.99
2022-12-06T09:29:44.986Z,5.99
2022-12-06T09:30:41.493Z,6.07
2022-12-06T09:31:38.898Z,6.1
2022-12-06T09:32:38.708Z,6.01
2022-12-06T09:33:38.723Z,5.91
2022-12-06T09:34:38.691Z,5.97
2022-12-06T09:35:38.700Z,6.07
2022-12-06T09:36:38.696Z,5.97
2022-12-06T09:37:38.722Z,6.05
2022-12-06T09:38:38.717Z,5.95
2022-12-06T09:39:38.697Z,6.06
2022-12-06T09:40:45.534Z,6.06
2022-12-06T09:41:41.698Z,5.79
2022-12-06T09:42:38.722Z,5.84
2022-12-06T09:43:38.718Z,5.94
2022-12-06T09:44:38.728Z,5.88
2022-12-06T09:45:38.725Z,5.81
2022-12-06T09:46:39.007Z,5.91
2022-12-06T09:47:38.724Z,5.92
2022-12-06T09:48:39.574Z,5.84
2022-12-06T09:49:38.722Z,5.87
2022-12-06T09:50:38.727Z,5.9
2022-12-06T09:51:38.766Z,5.81
2022-12-06T09:52:41.832Z,5.92
2022-12-06T09:53:38.794Z,5.84
2022-12-06T09:54:38.726Z,5.91
2022-12-06T09:55:38.777Z,5.91
2022-12-06T09:56:38.794Z,5.81
2022-12-06T09:57:38.728Z,5.97
2022-12-06T09:58:38.747Z,5.92
2022-12-06T09:59:38.719Z,5.92
2022-12-06T10:00:38.751Z,5.94
2022-12-06T10:01:38.923Z,5.91
2022-12-06T10:02:38.963Z,5.9
2022-12-06T10:03:41.767Z,5.94
2022-12-06T10:04:38.732Z,5.95
2022-12-06T10:05:38.776Z,5.97
2022-12-06T10:06:38.733Z,5.87
2022-12-06T10:07:39.008Z,5.95
2022-12-06T10:08:39.246Z,5.94
2022-12-06T10:09:38.751Z,5.95
2022-12-06T10:10:38.759Z,5.91
2022-12-06T10:11:38.795Z,5.99
2022-12-06T10:12:39.653Z,5.98
2022-12-06T10:13:38.742Z,5.97
2022-12-06T10:14:44.572Z,5.92
2022-12-06T10:15:39.103Z,5.98
2022-12-06T10:16:39.034Z,5.95
2022-12-06T10:17:38.756Z,6.02
2022-12-06T10:18:38.812Z,6.13
2022-12-06T10:19:38.791Z,5.91
2022-12-06T10:20:38.778Z,6.05
2022-12-06T10:21:38.820Z,6.01
2022-12-06T10:22:38.760Z,5.88
2022-12-06T10:23:38.783Z,5.94
2022-12-06T10:24:38.771Z,5.88
2022-12-06T10:25:40.743Z,5.97
2022-12-06T10:26:38.969Z,5.87
2022-12-06T10:27:41.852Z,6.01
2022-12-06T10:28:38.769Z,5.92
2022-12-06T10:29:38.781Z,5.95
2022-12-06T10:30:38.812Z,5.91
2022-12-06T10:31:39.135Z,5.98
2022-12-06T10:32:38.781Z,5.92
2022-12-06T10:33:38.776Z,5.88
2022-12-06T10:34:38.796Z,5.95
2022-12-06T10:35:38.837Z,5.94
2022-12-06T10:36:41.674Z,5.97
2022-12-06T10:37:38.803Z,5.92
2022-12-06T10:38:38.783Z,5.87
2022-12-06T10:39:38.801Z,5.84
2022-12-06T10:40:38.844Z,6.05
2022-12-06T10:41:38.782Z,6.01
2022-12-06T10:42:38.792Z,5.94
2022-12-06T10:43:38.836Z,5.99
2022-12-06T10:44:38.789Z,6.01
2022-12-06T10:45:38.866Z,5.97
2022-12-06T10:46:39.034Z,6.01
2022-12-06T10:47:41.868Z,5.9
2022-12-06T10:48:38.807Z,5.94
2022-12-06T10:49:38.825Z,6.02
2022-12-06T10:50:38.836Z,5.95
2022-12-06T10:51:38.816Z,6.1
2022-12-06T10:52:38.816Z,6.12
2022-12-06T10:53:38.805Z,6.01
2022-12-06T10:54:38.812Z,6.05
2022-12-06T10:55:38.860Z,6.06
2022-12-06T10:56:38.806Z,6.06
2022-12-06T10:57:38.835Z,6.05
2022-12-06T10:58:41.885Z,6.09
2022-12-06T10:59:38.860Z,6.05
2022-12-06T11:00:39.038Z,5.94
2022-12-06T11:01:39.369Z,5.94
2022-12-06T11:02:39.102Z,5.94
2022-12-06T11:03:38.823Z,5.9
2022-12-06T11:04:38.834Z,5.92
2022-12-06T11:05:39.450Z,5.94
2022-12-06T11:06:38.812Z,5.87
2022-12-06T11:07:39.123Z,5.91
2022-12-06T11:08:38.865Z,5.99
2022-12-06T11:09:38.858Z,5.92
2022-12-06T11:10:38.854Z,5.81
2022-12-06T11:11:38.830Z,5.94
2022-12-06T11:12:38.855Z,5.79
2022-12-06T11:13:38.817Z,5.87
2022-12-06T11:14:38.909Z,5.92
2022-12-06T11:15:38.876Z,5.84
2022-12-06T11:16:39.114Z,5.88
2022-12-06T11:17:38.846Z,5.91
2022-12-06T11:18:38.848Z,5.9
2022-12-06T11:19:38.843Z,5.91
2022-12-06T11:20:38.909Z,5.84
2022-12-06T11:21:38.852Z,5.87
2022-12-06T11:22:39.000Z,5.95
2022-12-06T11:23:38.888Z,5.8
2022-12-06T11:24:41.856Z,5.79
2022-12-06T11:25:38.946Z,5.76
2022-12-06T11:26:38.928Z,5.8
2022-12-06T11:27:38.867Z,5.79
2022-12-06T11:28:38.862Z,5.8
2022-12-06T11:29:38.854Z,5.83
2022-12-06T11:30:40.501Z,5.84
2022-12-06T11:31:39.240Z,5.84
2022-12-06T11:32:38.855Z,5.84
2022-12-06T11:33:38.870Z,5.88
2022-12-06T11:34:38.863Z,5.99
2022-12-06T11:35:38.889Z,5.94
2022-12-06T11:36:38.864Z,5.92
2022-12-06T11:37:45.141Z,5.84
2022-12-06T11:38:38.874Z,5.97
2022-12-06T11:39:38.961Z,5.94
2022-12-06T11:40:38.914Z,5.9
2022-12-06T11:41:41.659Z,5.97
2022-12-06T11:42:38.865Z,5.98
2022-12-06T11:43:38.878Z,5.99
2022-12-06T11:44:38.877Z,6.07
2022-12-06T11:45:38.910Z,6.01
2022-12-06T11:46:42.174Z,5.99
2022-12-06T11:47:38.913Z,6.06
2022-12-06T11:48:38.898Z,5.99
2022-12-06T11:49:38.901Z,6.07
2022-12-06T11:50:38.885Z,6.02
2022-12-06T11:51:38.889Z,5.94
2022-12-06T11:52:42.022Z,5.94
2022-12-06T11:53:38.906Z,6.06
2022-12-06T11:54:38.914Z,5.99
2022-12-06T11:55:38.935Z,5.97
2022-12-06T11:56:38.946Z,6.01
2022-12-06T11:57:42.120Z,5.91
2022-12-06T11:58:38.911Z,5.97
2022-12-06T11:59:39.102Z,5.97
2022-12-06T12:00:38.919Z,5.94
2022-12-06T12:01:39.168Z,5.99
2022-12-06T12:02:39.190Z,5.97
2022-12-06T12:03:42.066Z,5.9
2022-12-06T12:04:38.910Z,6.01
2022-12-06T12:05:38.986Z,5.94
2022-12-06T12:06:38.916Z,5.95
2022-12-06T12:07:39.126Z,5.95
2022-12-06T12:08:42.040Z,6.06
2022-12-06T12:09:38.943Z,5.88
2022-12-06T12:10:38.932Z,5.91
2022-12-06T12:11:38.955Z,5.97
2022-12-06T12:12:38.911Z,6.02
2022-12-06T12:13:38.935Z,5.94
2022-12-06T12:14:38.934Z,5.84
2022-12-06T12:15:38.941Z,5.76
2022-12-06T12:16:39.181Z,5.81
2022-12-06T12:17:38.946Z,5.97
2022-12-06T12:18:38.995Z,5.83
2022-12-06T12:19:41.985Z,5.87
2022-12-06T12:20:38.936Z,5.83
2022-12-06T12:21:38.946Z,5.87
2022-12-06T12:22:39.004Z,5.92
2022-12-06T12:23:38.986Z,5.91
2022-12-06T12:25:20.158Z,5.92
2022-12-06T12:25:38.963Z,6.02
2022-12-06T12:26:38.948Z,5.94
2022-12-06T12:27:38.963Z,5.88
2022-12-06T12:28:38.964Z,5.98
2022-12-06T12:29:38.945Z,5.97
2022-12-06T12:30:41.757Z,5.99
2022-12-06T12:31:39.114Z,5.97
2022-12-06T12:32:38.976Z,5.97
2022-12-06T12:33:38.970Z,5.91
2022-12-06T12:34:45.428Z,5.9
2022-12-06T12:35:38.943Z,5.94
2022-12-06T12:36:38.962Z,5.84
2022-12-06T12:37:38.958Z,5.87
2022-12-06T12:38:38.944Z,5.92
2022-12-06T12:39:39.004Z,5.87
2022-12-06T12:40:38.976Z,5.97
2022-12-06T12:41:42.110Z,5.92
2022-12-06T12:42:38.970Z,5.87
2022-12-06T12:43:39.026Z,5.88
2022-12-06T12:44:43.659Z,5.88
2022-12-06T12:45:39.160Z,5.97
2022-12-06T12:46:39.082Z,5.94
2022-12-06T12:47:38.969Z,5.97
2022-12-06T12:48:38.973Z,5.92
2022-12-06T12:49:39.152Z,6.05
2022-12-06T12:50:39.031Z,5.99
2022-12-06T12:51:42.528Z,5.99
2022-12-06T12:52:42.224Z,5.92
2022-12-06T12:53:39.257Z,5.95
2022-12-06T12:54:39.006Z,5.99
2022-12-06T12:55:38.990Z,5.92
2022-12-06T12:56:39.019Z,6.05
2022-12-06T12:57:39.007Z,5.91
2022-12-06T12:58:40.985Z,5.87
2022-12-06T12:59:39.028Z,5.84
2022-12-06T13:00:39.005Z,5.97
2022-12-06T13:01:39.302Z,5.84
2022-12-06T13:02:39.213Z,5.84
2022-12-06T13:03:55.804Z,5.91
2022-12-06T13:04:39.004Z,5.73
2022-12-06T13:05:47.803Z,5.79
2022-12-06T13:06:39.047Z,5.91
2022-12-06T13:07:39.147Z,5.91
2022-12-06T13:08:39.004Z,5.79
2022-12-06T13:09:44.820Z,5.79
2022-12-06T13:10:41.468Z,5.69
2022-12-06T13:11:39.030Z,5.8
2022-12-06T13:12:39.007Z,5.64
2022-12-06T13:13:39.033Z,5.54
2022-12-06T13:14:39.198Z,5.54
2022-12-06T13:15:40.101Z,5.62
2022-12-06T13:16:39.232Z,5.56
2022-12-06T13:17:39.027Z,5.73
2022-12-06T13:18:39.313Z,5.73
2022-12-06T13:19:39.016Z,5.65
2022-12-06T13:20:39.017Z,5.64
2022-12-06T13:21:39.105Z,5.64